createdAt,value
2018-12-23T00:00:38.585Z,17.60
2018-12-23T00:03:07.525Z,20.20
2018-12-23T00:05:36.484Z,19.20
2018-12-23T00:08:05.429Z,19.53
2018-12-23T00:10:34.877Z,19.87
2018-12-23T00:13:03.901Z,19.90
2018-12-23T00:15:32.845Z,16.83
2018-12-23T00:18:01.897Z,19.80
2018-12-23T00:20:30.929Z,20.97
2018-12-23T00:22:59.898Z,19.20
2018-12-23T00:25:28.858Z,19.97
2018-12-23T00:27:58.206Z,21.20
2018-12-23T00:30:27.261Z,21.23
2018-12-23T00:32:56.201Z,22.03
2018-12-23T00:35:25.240Z,20.83
2018-12-23T00:37:54.186Z,22.37
2018-12-23T00:40:23.132Z,20.67
2018-12-23T00:42:52.100Z,20.43
2018-12-23T00:45:21.037Z,21.90
2018-12-23T00:47:50.046Z,21.63
2018-12-23T00:50:19.013Z,21.17
2018-12-23T00:52:47.957Z,21.53
2018-12-23T00:55:16.923Z,22.57
2018-12-23T00:57:45.866Z,21.10
2018-12-23T01:00:14.845Z,18.67
2018-12-23T01:02:43.793Z,20.00
2018-12-23T01:05:12.743Z,19.50
2018-12-23T01:07:41.708Z,20.60
2018-12-23T01:10:10.745Z,19.27
2018-12-23T01:12:39.819Z,21.17
2018-12-23T01:15:08.853Z,20.63
2018-12-23T01:17:37.797Z,21.60
2018-12-23T01:20:08.169Z,21.50
2018-12-23T01:22:37.097Z,19.47
2018-12-23T01:25:07.109Z,17.60
2018-12-23T01:27:36.053Z,19.27
2018-12-23T01:30:05.650Z,20.37
2018-12-23T01:32:34.648Z,19.90
2018-12-23T01:35:04.681Z,20.73
2018-12-23T01:37:34.902Z,20.63
2018-12-23T01:40:04.197Z,22.60
2018-12-23T01:42:33.229Z,19.77
2018-12-23T01:45:02.218Z,23.57
2018-12-23T01:47:31.283Z,22.47
2018-12-23T01:50:00.266Z,24.03
2018-12-23T01:52:30.181Z,24.27
2018-12-23T01:55:00.933Z,24.83
2018-12-23T01:57:29.909Z,27.53
2018-12-23T01:59:58.846Z,26.57
2018-12-23T02:02:27.905Z,26.57
2018-12-23T02:04:56.837Z,25.47
2018-12-23T02:07:25.806Z,22.90
2018-12-23T02:09:54.843Z,24.07
2018-12-23T02:12:23.789Z,25.73
2018-12-23T02:14:52.893Z,25.63
2018-12-23T02:17:21.831Z,26.47
2018-12-23T02:19:50.878Z,27.23
2018-12-23T02:22:19.817Z,26.57
2018-12-23T02:24:48.753Z,24.80
2018-12-23T02:27:17.814Z,22.97
2018-12-23T02:29:46.757Z,23.80
2018-12-23T02:32:16.640Z,23.43
2018-12-23T02:34:45.585Z,21.87
2018-12-23T02:37:15.021Z,23.03
2018-12-23T02:39:43.988Z,25.77
2018-12-23T02:42:12.930Z,24.07
2018-12-23T02:44:41.893Z,24.27
2018-12-23T02:47:11.690Z,22.33
2018-12-23T02:49:40.665Z,22.03
2018-12-23T02:52:09.610Z,21.23
2018-12-23T02:54:38.569Z,21.60
2018-12-23T02:57:07.530Z,23.00
2018-12-23T02:59:36.469Z,22.33
2018-12-23T03:02:05.693Z,20.83
2018-12-23T03:04:34.637Z,20.50
2018-12-23T03:07:03.578Z,20.07
2018-12-23T03:09:32.545Z,21.47
2018-12-23T03:12:03.344Z,21.27
2018-12-23T03:14:32.398Z,21.57
2018-12-23T03:17:02.012Z,21.70
2018-12-23T03:19:30.958Z,23.77
2018-12-23T03:21:59.920Z,23.77
2018-12-23T03:24:28.867Z,25.27
2018-12-23T03:26:57.845Z,26.73
2018-12-23T03:29:26.825Z,25.13
2018-12-23T03:31:55.785Z,26.07
2018-12-23T03:34:24.898Z,25.80
2018-12-23T03:36:53.843Z,26.03
2018-12-23T03:39:22.817Z,24.23
2018-12-23T03:41:51.854Z,24.93
2018-12-23T03:44:20.793Z,25.87
2018-12-23T03:46:49.754Z,24.50
2018-12-23T03:49:18.704Z,24.03
2018-12-23T03:51:47.688Z,23.47
2018-12-23T03:54:16.623Z,23.67
2018-12-23T03:56:46.454Z,24.00
2018-12-23T03:59:15.431Z,23.80
2018-12-23T04:01:45.281Z,23.97
2018-12-23T04:04:14.325Z,22.97
2018-12-23T04:06:43.281Z,21.90
2018-12-23T04:09:12.223Z,21.97
2018-12-23T04:11:41.189Z,22.77
2018-12-23T04:14:10.151Z,22.27
2018-12-23T04:16:39.246Z,21.27
2018-12-23T04:19:08.185Z,21.07
2018-12-23T04:21:37.341Z,23.57
2018-12-23T04:24:06.308Z,21.80
2018-12-23T04:26:35.274Z,21.53
2018-12-23T04:29:04.533Z,21.10
2018-12-23T04:31:33.474Z,21.23
2018-12-23T04:34:02.419Z,20.63
2018-12-23T04:36:34.284Z,21.33
2018-12-23T04:39:02.370Z,20.73
2018-12-23T04:41:32.545Z,22.90
2018-12-23T04:44:01.478Z,21.63
2018-12-23T04:46:30.416Z,19.93
2018-12-23T04:48:59.377Z,19.93
2018-12-23T04:51:28.314Z,19.87
2018-12-23T04:53:57.603Z,20.67
2018-12-23T04:56:26.546Z,17.83
2018-12-23T04:58:55.482Z,19.30
2018-12-23T05:01:24.842Z,18.80
2018-12-23T05:03:53.786Z,18.43
2018-12-23T05:06:22.769Z,17.80
2018-12-23T05:08:51.723Z,19.20
2018-12-23T05:11:20.667Z,19.67
2018-12-23T05:13:49.641Z,19.83
2018-12-23T05:16:18.582Z,18.30
2018-12-23T05:18:47.652Z,18.23
2018-12-23T05:21:16.638Z,19.93
2018-12-23T05:23:45.581Z,19.10
2018-12-23T05:26:14.554Z,20.57
2018-12-23T05:28:43.503Z,20.27
2018-12-23T05:31:12.525Z,20.47
2018-12-23T05:33:41.476Z,22.07
2018-12-23T05:36:10.430Z,21.60
2018-12-23T05:38:39.396Z,20.90
2018-12-23T05:41:08.344Z,21.17
2018-12-23T05:43:37.321Z,23.30
2018-12-23T05:46:06.264Z,20.57
2018-12-23T05:48:35.521Z,22.10
2018-12-23T05:51:04.595Z,19.00
2018-12-23T05:53:33.533Z,20.93
2018-12-23T05:56:03.105Z,20.80
2018-12-23T05:58:32.049Z,20.33
2018-12-23T06:01:00.993Z,21.17
2018-12-23T06:03:29.957Z,20.03
2018-12-23T06:05:58.897Z,20.70
2018-12-23T06:08:27.964Z,20.73
2018-12-23T06:10:56.913Z,21.47
2018-12-23T06:13:25.861Z,20.53
2018-12-23T06:15:54.879Z,21.90
2018-12-23T06:18:23.821Z,21.73
2018-12-23T06:20:52.875Z,21.70
2018-12-23T06:23:21.827Z,21.50
2018-12-23T06:25:50.770Z,20.17
2018-12-23T06:28:19.733Z,21.10
2018-12-23T06:30:48.765Z,21.10
2018-12-23T06:33:18.085Z,20.83
2018-12-23T06:35:47.107Z,20.00
2018-12-23T06:38:16.215Z,19.47
2018-12-23T06:40:45.173Z,20.23
2018-12-23T06:43:14.209Z,19.90
2018-12-23T06:45:43.458Z,22.23
2018-12-23T06:48:12.407Z,20.30
2018-12-23T06:50:41.349Z,20.00
2018-12-23T06:53:10.308Z,20.93
2018-12-23T06:55:39.252Z,19.73
2018-12-23T06:58:08.265Z,19.93
2018-12-23T07:00:37.201Z,20.43
2018-12-23T07:03:06.153Z,20.30
2018-12-23T07:05:35.110Z,21.20
2018-12-23T07:08:04.049Z,20.00
2018-12-23T07:10:33.137Z,19.50
2018-12-23T07:13:02.073Z,21.03
2018-12-23T07:15:31.086Z,18.97
2018-12-23T07:18:00.054Z,19.83
2018-12-23T07:20:28.997Z,19.43
2018-12-23T07:22:58.039Z,18.93
2018-12-23T07:25:26.981Z,19.83
2018-12-23T07:27:55.929Z,20.50
2018-12-23T07:30:24.891Z,20.07
2018-12-23T07:32:53.829Z,19.50
2018-12-23T07:35:22.831Z,20.20
2018-12-23T07:37:51.773Z,20.07
2018-12-23T07:40:20.742Z,18.60
2018-12-23T07:42:49.709Z,19.07
2018-12-23T07:45:18.649Z,18.10
2018-12-23T07:47:47.705Z,18.30
2018-12-23T07:50:16.651Z,19.20
2018-12-23T07:52:45.592Z,18.40
2018-12-23T07:55:14.552Z,16.97
2018-12-23T07:57:43.488Z,17.63
2018-12-23T08:00:12.458Z,17.43
2018-12-23T08:02:41.407Z,17.87
2018-12-23T08:05:10.375Z,15.53
2018-12-23T08:07:39.333Z,15.27
2018-12-23T08:10:08.365Z,15.73
2018-12-23T08:12:37.429Z,15.67
2018-12-23T08:15:06.568Z,15.83
2018-12-23T08:17:35.513Z,15.10
2018-12-23T08:20:04.991Z,14.97
2018-12-23T08:22:33.936Z,14.77
2018-12-23T08:25:03.338Z,13.30
2018-12-23T08:27:32.281Z,14.53
2018-12-23T08:30:01.277Z,19.07
2018-12-23T08:32:30.717Z,14.13
2018-12-23T08:34:59.657Z,17.27
2018-12-23T08:37:28.910Z,15.37
2018-12-23T08:39:57.857Z,14.27
2018-12-23T08:42:26.821Z,13.60
2018-12-23T08:44:55.801Z,12.77
2018-12-23T08:47:24.734Z,13.33
2018-12-23T08:49:53.675Z,13.40
2018-12-23T08:52:22.669Z,11.40
2018-12-23T08:54:51.613Z,12.13
2018-12-23T08:57:20.570Z,11.93
2018-12-23T08:59:49.524Z,11.57
2018-12-23T09:02:18.470Z,11.77
2018-12-23T09:04:47.477Z,15.43
2018-12-23T09:07:16.413Z,11.97
2018-12-23T09:09:45.356Z,12.33
2018-12-23T09:12:15.401Z,11.60
2018-12-23T09:14:44.345Z,11.17
2018-12-23T09:17:13.393Z,10.93
2018-12-23T09:19:43.406Z,10.97
2018-12-23T09:22:12.460Z,10.73
2018-12-23T09:24:41.579Z,11.10
2018-12-23T09:27:10.522Z,10.93
2018-12-23T09:29:39.692Z,11.33
2018-12-23T09:32:08.633Z,12.23
2018-12-23T09:34:37.585Z,10.50
2018-12-23T09:37:06.549Z,11.00
2018-12-23T09:39:35.485Z,10.07
2018-12-23T09:42:05.406Z,11.03
2018-12-23T09:44:34.345Z,9.00
2018-12-23T09:47:03.278Z,9.93
2018-12-23T09:49:32.245Z,8.37
2018-12-23T09:52:01.204Z,8.30
2018-12-23T09:54:30.249Z,7.67
2018-12-23T09:56:59.181Z,7.40
2018-12-23T09:59:28.120Z,7.10
2018-12-23T10:01:57.922Z,7.10
2018-12-23T10:04:28.029Z,6.80
2018-12-23T10:06:58.047Z,7.00
2018-12-23T10:09:26.985Z,7.80
2018-12-23T10:11:56.359Z,8.20
2018-12-23T10:14:25.545Z,7.30
2018-12-23T10:16:54.580Z,7.70
2018-12-23T10:19:23.658Z,6.93
2018-12-23T10:21:53.049Z,8.00
2018-12-23T10:24:21.977Z,7.37
2018-12-23T10:26:50.943Z,6.00
2018-12-23T10:29:19.969Z,7.10
2018-12-23T10:31:49.086Z,6.73
2018-12-23T10:34:18.134Z,6.30
2018-12-23T10:36:47.180Z,7.67
2018-12-23T10:39:17.171Z,7.43
2018-12-23T10:41:46.118Z,6.90
2018-12-23T10:44:15.396Z,7.00
2018-12-23T10:46:44.350Z,6.63
2018-12-23T10:49:13.281Z,6.63
2018-12-23T10:51:42.242Z,6.07
2018-12-23T10:54:11.249Z,6.73
2018-12-23T10:56:40.397Z,6.70
2018-12-23T10:59:09.334Z,5.87
2018-12-23T11:01:38.634Z,5.50
2018-12-23T11:04:07.597Z,6.27
2018-12-23T11:06:36.914Z,5.80
2018-12-23T11:09:06.689Z,6.27
2018-12-23T11:11:35.631Z,5.30
2018-12-23T11:14:04.572Z,5.60
2018-12-23T11:16:33.530Z,5.40
2018-12-23T11:19:02.457Z,5.70
2018-12-23T11:21:31.513Z,5.33
2018-12-23T11:24:00.462Z,5.00
2018-12-23T11:26:29.393Z,5.00
2018-12-23T11:28:58.353Z,4.57
2018-12-23T11:31:28.593Z,5.30
2018-12-23T11:33:58.727Z,4.60
2018-12-23T11:36:27.764Z,4.43
2018-12-23T11:38:57.701Z,5.13
2018-12-23T11:41:26.783Z,4.33
2018-12-23T11:43:55.722Z,4.20
2018-12-23T11:46:24.738Z,4.50
2018-12-23T11:48:54.518Z,4.70
2018-12-23T11:51:23.465Z,5.00
2018-12-23T11:53:53.268Z,5.53
2018-12-23T11:56:22.625Z,6.00
2018-12-23T11:58:51.680Z,6.03
2018-12-23T12:01:20.618Z,6.77
2018-12-23T12:04:26.658Z,8.10
2018-12-23T12:06:57.191Z,5.83
2018-12-23T12:09:27.843Z,7.07
2018-12-23T12:11:58.389Z,6.73
2018-12-23T12:14:29.005Z,7.37
2018-12-23T12:16:59.474Z,6.80
2018-12-23T12:19:30.042Z,6.90
2018-12-23T12:22:00.554Z,6.70
2018-12-23T12:24:31.147Z,6.77
2018-12-23T12:27:01.671Z,8.00
2018-12-23T12:29:32.328Z,7.60
2018-12-23T12:32:02.850Z,8.03
2018-12-23T12:34:33.471Z,7.90
2018-12-23T12:37:03.998Z,8.53
2018-12-23T12:39:34.582Z,8.03
2018-12-23T12:42:05.119Z,7.30
2018-12-23T12:44:35.783Z,7.50
2018-12-23T12:47:06.311Z,6.00
2018-12-23T12:49:37.178Z,5.90
2018-12-23T12:52:07.780Z,6.20
2018-12-23T12:54:38.675Z,5.90
2018-12-23T12:57:09.210Z,5.63
2018-12-23T12:59:40.123Z,5.97
2018-12-23T13:02:10.663Z,5.90
2018-12-23T13:04:41.527Z,6.13
2018-12-23T13:07:12.044Z,6.33
2018-12-23T13:09:42.665Z,5.40
2018-12-23T13:12:13.202Z,4.90
2018-12-23T13:14:43.855Z,6.20
2018-12-23T13:17:14.390Z,4.67
2018-12-23T13:19:44.877Z,4.03
2018-12-23T13:22:15.402Z,3.50
2018-12-23T13:24:46.043Z,3.60
2018-12-23T13:27:16.870Z,3.00
2018-12-23T13:29:47.562Z,8.27
2018-12-23T13:32:18.454Z,3.73
2018-12-23T13:34:49.363Z,4.27
2018-12-23T13:37:19.818Z,4.53
2018-12-23T13:39:52.176Z,5.33
2018-12-23T13:43:00.758Z,5.20
2018-12-23T13:46:20.373Z,6.93
2018-12-23T13:49:08.606Z,6.63
2018-12-23T13:52:19.051Z,8.10
2018-12-23T13:55:25.399Z,10.40
2018-12-23T13:58:21.462Z,12.70
2018-12-23T14:01:10.015Z,10.97
2018-12-23T14:04:19.068Z,12.63
2018-12-23T14:07:31.663Z,13.50
2018-12-23T14:10:36.645Z,13.37
2018-12-23T14:13:07.483Z,14.53
2018-12-23T14:15:38.114Z,13.37
2018-12-23T14:18:08.638Z,14.47
2018-12-23T14:20:39.313Z,13.43
2018-12-23T14:23:09.879Z,13.93
2018-12-23T14:25:40.443Z,14.23
2018-12-23T14:28:10.983Z,15.57
2018-12-23T14:30:41.550Z,17.57
2018-12-23T14:33:12.086Z,15.80
2018-12-23T14:35:42.765Z,15.50
2018-12-23T14:38:13.304Z,16.37
2018-12-23T14:40:43.946Z,16.00
2018-12-23T14:43:14.519Z,20.33
2018-12-23T14:45:45.122Z,22.00
2018-12-23T14:48:15.655Z,16.23
2018-12-23T14:50:46.227Z,15.70
2018-12-23T14:53:16.980Z,15.60
2018-12-23T14:55:47.659Z,15.97
2018-12-23T14:58:18.461Z,14.57
2018-12-23T15:00:49.293Z,13.70
2018-12-23T15:03:20.151Z,13.93
2018-12-23T15:05:50.766Z,13.13
2018-12-23T15:08:21.317Z,12.80
2018-12-23T15:10:51.978Z,14.17
2018-12-23T15:13:22.511Z,14.37
2018-12-23T15:15:53.166Z,13.73
2018-12-23T15:18:23.730Z,15.55
2018-12-23T15:20:54.562Z,13.20
2018-12-23T15:23:25.095Z,16.93
2018-12-23T15:25:55.680Z,15.07
2018-12-23T15:28:26.231Z,16.27
2018-12-23T15:30:56.878Z,15.97
2018-12-23T15:33:27.695Z,15.57
2018-12-23T15:35:58.558Z,15.60
2018-12-23T15:38:29.610Z,15.10
2018-12-23T15:41:00.307Z,14.73
2018-12-23T15:43:30.851Z,14.70
2018-12-23T15:46:01.459Z,16.07
2018-12-23T15:48:31.979Z,16.43
2018-12-23T15:51:02.655Z,15.47
2018-12-23T15:53:34.158Z,16.67
2018-12-23T15:56:04.750Z,15.67
2018-12-23T15:58:35.303Z,14.77
2018-12-23T16:01:05.958Z,15.60
2018-12-23T16:03:36.511Z,15.47
2018-12-23T16:06:07.175Z,16.67
2018-12-23T16:08:37.712Z,15.87
2018-12-23T16:11:08.312Z,18.17
2018-12-23T16:13:38.867Z,15.03
2018-12-23T16:16:09.805Z,17.90
2018-12-23T16:18:40.343Z,16.80
2018-12-23T16:21:11.150Z,16.00
2018-12-23T16:23:41.685Z,16.40
2018-12-23T16:26:12.266Z,16.17
2018-12-23T16:28:42.813Z,15.97
2018-12-23T16:31:13.423Z,18.00
2018-12-23T16:33:43.960Z,17.40
2018-12-23T16:36:14.973Z,16.17
2018-12-23T16:38:45.522Z,18.83
2018-12-23T16:41:16.411Z,17.97
2018-12-23T16:43:46.945Z,16.83
2018-12-23T16:46:17.614Z,16.43
2018-12-23T16:48:48.163Z,15.63
2018-12-23T16:51:18.745Z,18.67
2018-12-23T16:53:49.267Z,19.73
2018-12-23T16:56:20.166Z,16.57
2018-12-23T16:58:50.703Z,16.40
2018-12-23T17:01:21.275Z,15.93
2018-12-23T17:03:51.807Z,16.60
2018-12-23T17:06:22.422Z,16.53
2018-12-23T17:08:52.968Z,16.73
2018-12-23T17:11:23.722Z,17.40
2018-12-23T17:13:54.273Z,17.00
2018-12-23T17:16:24.864Z,16.87
2018-12-23T17:18:55.406Z,17.60
2018-12-23T17:21:26.069Z,16.50
2018-12-23T17:23:56.595Z,16.70
2018-12-23T17:26:27.414Z,17.27
2018-12-23T17:28:57.950Z,17.43
2018-12-23T17:31:28.523Z,17.73
2018-12-23T17:33:59.063Z,16.20
2018-12-23T17:36:29.720Z,17.77
2018-12-23T17:39:00.251Z,17.57
2018-12-23T17:41:30.857Z,17.53
2018-12-23T17:44:01.383Z,17.30
2018-12-23T17:46:31.964Z,17.87
2018-12-23T17:49:02.488Z,16.90
2018-12-23T17:51:33.130Z,17.10
2018-12-23T17:54:03.663Z,16.83
2018-12-23T17:56:34.344Z,18.03
2018-12-23T17:59:04.874Z,18.73
2018-12-23T18:01:35.483Z,17.57
2018-12-23T18:04:06.012Z,18.33
2018-12-23T18:06:36.586Z,17.33
2018-12-23T18:09:07.998Z,17.83
2018-12-23T18:11:38.671Z,18.60
2018-12-23T18:14:09.194Z,18.73
2018-12-23T18:16:39.826Z,18.80
2018-12-23T18:19:10.327Z,20.43
2018-12-23T18:21:40.993Z,18.20
2018-12-23T18:24:12.555Z,17.47
2018-12-23T18:26:45.172Z,18.10
2018-12-23T18:29:15.285Z,18.37
2018-12-23T18:31:45.879Z,17.73
2018-12-23T18:34:16.411Z,18.97
2018-12-23T18:36:47.062Z,18.23
2018-12-23T18:39:17.575Z,18.50
2018-12-23T18:41:48.169Z,18.03
2018-12-23T18:44:18.681Z,18.13
2018-12-23T18:46:49.351Z,18.17
2018-12-23T18:49:19.878Z,18.57
2018-12-23T18:51:50.546Z,18.57
2018-12-23T18:54:21.109Z,18.77
2018-12-23T18:56:55.382Z,18.47
2018-12-23T18:59:26.072Z,19.00
2018-12-23T19:02:03.944Z,18.93
2018-12-23T19:04:34.577Z,18.53
2018-12-23T19:07:05.528Z,18.20
2018-12-23T19:09:47.274Z,17.60
2018-12-23T19:12:36.373Z,18.00
2018-12-23T19:15:20.567Z,18.53
2018-12-23T19:18:14.704Z,17.30
2018-12-23T19:21:23.278Z,17.50
2018-12-23T19:24:29.274Z,16.53
2018-12-23T19:27:29.886Z,17.67
2018-12-23T19:30:43.366Z,17.53
2018-12-23T19:33:51.844Z,18.00
2018-12-23T19:36:55.843Z,17.03
2018-12-23T19:40:01.627Z,17.30
2018-12-23T19:42:59.631Z,16.53
2018-12-23T19:46:17.526Z,17.37
2018-12-23T19:49:24.284Z,16.87
2018-12-23T19:52:41.871Z,17.93
2018-12-23T19:55:48.238Z,15.63
2018-12-23T19:59:02.615Z,16.77
2018-12-23T20:02:13.010Z,16.80
2018-12-23T20:05:04.560Z,17.37
2018-12-23T20:08:16.506Z,17.17
2018-12-23T20:11:30.210Z,17.90
2018-12-23T20:14:36.067Z,17.57
2018-12-23T20:17:48.885Z,17.93
2018-12-23T20:20:49.758Z,17.33
2018-12-23T20:24:02.855Z,19.03
2018-12-23T20:27:12.623Z,18.63
2018-12-23T20:30:19.751Z,18.40
2018-12-23T20:33:25.594Z,17.83
2018-12-23T20:36:41.735Z,17.97
2018-12-23T20:39:34.235Z,17.77
2018-12-23T20:42:30.607Z,17.37
2018-12-23T20:45:46.945Z,17.27
2018-12-23T20:48:52.074Z,17.57
2018-12-23T20:52:06.623Z,17.47
2018-12-23T20:55:11.418Z,16.93
2018-12-23T20:57:55.154Z,16.40
2018-12-23T21:01:16.488Z,16.67
2018-12-23T21:04:36.167Z,16.30
2018-12-23T21:08:08.915Z,16.77
2018-12-23T21:11:16.069Z,17.03
2018-12-23T21:14:35.143Z,16.63
2018-12-23T21:17:46.175Z,16.23
2018-12-23T21:20:52.819Z,16.47
2018-12-23T21:23:52.011Z,16.33
2018-12-23T21:27:03.377Z,16.73
2018-12-23T21:30:06.482Z,16.33
2018-12-23T21:33:08.026Z,17.53
2018-12-23T21:36:25.941Z,18.70
2018-12-23T21:39:18.039Z,16.70
2018-12-23T21:42:33.031Z,17.67
2018-12-23T21:45:56.455Z,18.47
2018-12-23T21:49:09.927Z,18.00
2018-12-23T21:52:26.683Z,17.77
2018-12-23T21:55:33.651Z,16.77
2018-12-23T21:58:40.907Z,15.60
2018-12-23T22:01:52.350Z,13.57
2018-12-23T22:05:05.022Z,14.73
2018-12-23T22:08:17.387Z,15.70
2018-12-23T22:11:14.580Z,15.33
2018-12-23T22:13:45.243Z,15.03
2018-12-23T22:16:15.774Z,15.13
2018-12-23T22:18:46.424Z,14.83
2018-12-23T22:21:16.957Z,14.30
2018-12-23T22:23:47.605Z,17.03
2018-12-23T22:26:18.426Z,14.67
2018-12-23T22:28:49.031Z,16.73
2018-12-23T22:31:19.559Z,15.40
2018-12-23T22:33:50.087Z,15.77
2018-12-23T22:36:20.642Z,15.07
2018-12-23T22:38:51.167Z,15.70
2018-12-23T22:41:25.358Z,16.77
2018-12-23T22:43:55.923Z,15.23
2018-12-23T22:46:26.510Z,16.40
2018-12-23T22:48:57.402Z,16.97
2018-12-23T22:51:27.974Z,16.30
2018-12-23T22:53:58.503Z,16.30
2018-12-23T22:56:29.154Z,15.27
2018-12-23T22:58:59.695Z,15.13
2018-12-23T23:01:30.278Z,13.30
2018-12-23T23:04:00.803Z,13.47
2018-12-23T23:06:31.712Z,13.77
2018-12-23T23:09:02.246Z,13.20
2018-12-23T23:11:32.815Z,12.97
2018-12-23T23:14:03.362Z,11.10
2018-12-23T23:16:34.026Z,11.63
2018-12-23T23:19:04.554Z,10.53
2018-12-23T23:21:35.182Z,10.83
2018-12-23T23:24:05.729Z,10.70
2018-12-23T23:26:37.446Z,11.03
2018-12-23T23:29:07.992Z,10.53
2018-12-23T23:31:38.553Z,10.20
2018-12-23T23:34:09.074Z,9.67
2018-12-23T23:36:39.723Z,7.30
2018-12-23T23:39:10.255Z,7.37
2018-12-23T23:41:40.810Z,8.03
2018-12-23T23:44:11.355Z,7.33
2018-12-23T23:46:41.987Z,7.90
2018-12-23T23:49:12.507Z,7.60
2018-12-23T23:51:43.098Z,7.77
2018-12-23T23:54:13.623Z,8.00
2018-12-23T23:56:44.179Z,8.03
2018-12-23T23:59:14.698Z,8.10
